sensor_id;sensor_type;location;lat;lon;timestamp;pressure;altitude;pressure_sealevel;temperature;humidity
35435;BME280;21556;55.782;37.528;2023-07-13T00:00:19;98817.50;;;14.65;100.00
35435;BME280;21556;55.782;37.528;2023-07-13T00:02:46;98813.94;;;14.71;100.00
35435;BME280;21556;55.782;37.528;2023-07-13T00:05:11;98818.34;;;14.71;100.00
35435;BME280;21556;55.782;37.528;2023-07-13T00:07:37;98821.09;;;14.61;100.00
35435;BME280;21556;55.782;37.528;2023-07-13T00:10:03;98825.81;;;14.35;100.00
35435;BME280;21556;55.782;37.528;2023-07-13T00:12:36;98824.25;;;14.20;100.00
35435;BME280;21556;55.782;37.528;2023-07-13T00:15:04;98834.69;;;14.26;100.00
35435;BME280;21556;55.782;37.528;2023-07-13T00:17:30;98829.38;;;14.29;100.00
35435;BME280;21556;55.782;37.528;2023-07-13T00:19:56;98831.81;;;14.46;100.00
35435;BME280;21556;55.782;37.528;2023-07-13T00:22:22;98827.59;;;14.33;100.00
35435;BME280;21556;55.782;37.528;2023-07-13T00:24:49;98818.75;;;14.38;100.00
35435;BME280;21556;55.782;37.528;2023-07-13T00:27:17;98821.06;;;14.64;100.00
35435;BME280;21556;55.782;37.528;2023-07-13T00:29:43;98818.22;;;14.77;100.00
35435;BME280;21556;55.782;37.528;2023-07-13T00:32:08;98813.94;;;14.71;100.00
35435;BME280;21556;55.782;37.528;2023-07-13T00:34:35;98816.38;;;14.83;100.00
35435;BME280;21556;55.782;37.528;2023-07-13T00:37:01;98819.22;;;14.71;100.00
35435;BME280;21556;55.782;37.528;2023-07-13T00:39:27;98820.19;;;14.62;100.00
35435;BME280;21556;55.782;37.528;2023-07-13T00:41:53;98814.13;;;14.56;100.00
35435;BME280;21556;55.782;37.528;2023-07-13T00:44:19;98812.41;;;14.53;100.00
35435;BME280;21556;55.782;37.528;2023-07-13T00:46:45;98813.50;;;14.34;100.00
35435;BME280;21556;55.782;37.528;2023-07-13T00:49:12;98819.81;;;14.22;100.00
35435;BME280;21556;55.782;37.528;2023-07-13T00:51:51;98815.19;;;14.39;100.00
35435;BME280;21556;55.782;37.528;2023-07-13T00:54:18;98819.94;;;14.13;100.00
35435;BME280;21556;55.782;37.528;2023-07-13T00:56:45;98817.63;;;14.58;100.00
35435;BME280;21556;55.782;37.528;2023-07-13T00:59:11;98808.91;;;14.48;100.00
35435;BME280;21556;55.782;37.528;2023-07-13T01:01:38;98816.00;;;14.46;100.00
35435;BME280;21556;55.782;37.528;2023-07-13T01:04:05;98810.84;;;14.34;100.00
35435;BME280;21556;55.782;37.528;2023-07-13T01:06:36;98811.78;;;14.30;100.00
35435;BME280;21556;55.782;37.528;2023-07-13T01:09:02;98802.72;;;14.52;100.00
35435;BME280;21556;55.782;37.528;2023-07-13T01:11:30;98811.66;;;14.42;100.00
35435;BME280;21556;55.782;37.528;2023-07-13T01:13:55;98814.00;;;14.65;100.00
35435;BME280;21556;55.782;37.528;2023-07-13T01:16:24;98807.03;;;14.59;100.00
35435;BME280;21556;55.782;37.528;2023-07-13T01:18:50;98808.03;;;14.48;100.00
35435;BME280;21556;55.782;37.528;2023-07-13T01:21:15;98803.66;;;14.50;100.00
35435;BME280;21556;55.782;37.528;2023-07-13T01:23:42;98811.47;;;14.57;100.00
35435;BME280;21556;55.782;37.528;2023-07-13T01:26:09;98807.22;;;14.45;100.00
35435;BME280;21556;55.782;37.528;2023-07-13T01:28:36;98801.00;;;14.51;100.00
35435;BME280;21556;55.782;37.528;2023-07-13T01:31:02;98807.63;;;14.13;100.00
35435;BME280;21556;55.782;37.528;2023-07-13T01:33:28;98799.72;;;14.09;100.00
35435;BME280;21556;55.782;37.528;2023-07-13T01:35:55;98790.50;;;14.43;100.00
35435;BME280;21556;55.782;37.528;2023-07-13T01:38:23;98793.69;;;14.70;100.00
35435;BME280;21556;55.782;37.528;2023-07-13T01:40:48;98792.91;;;14.63;100.00
35435;BME280;21556;55.782;37.528;2023-07-13T01:43:14;98788.66;;;14.52;100.00
35435;BME280;21556;55.782;37.528;2023-07-13T01:45:43;98791.31;;;14.52;100.00
35435;BME280;21556;55.782;37.528;2023-07-13T01:48:10;98790.72;;;14.27;100.00
35435;BME280;21556;55.782;37.528;2023-07-13T01:50:36;98792.75;;;14.06;100.00
35435;BME280;21556;55.782;37.528;2023-07-13T01:53:01;98788.78;;;14.41;100.00
35435;BME280;21556;55.782;37.528;2023-07-13T01:55:27;98788.81;;;14.39;100.00
35435;BME280;21556;55.782;37.528;2023-07-13T01:57:53;98789.41;;;14.61;100.00
35435;BME280;21556;55.782;37.528;2023-07-13T02:00:19;98789.50;;;14.57;100.00
35435;BME280;21556;55.782;37.528;2023-07-13T02:02:47;98788.03;;;14.31;100.00
35435;BME280;21556;55.782;37.528;2023-07-13T02:05:13;98783.44;;;14.47;100.00
35435;BME280;21556;55.782;37.528;2023-07-13T02:07:40;98783.47;;;14.45;100.00
35435;BME280;21556;55.782;37.528;2023-07-13T02:10:06;98775.47;;;14.53;100.00
35435;BME280;21556;55.782;37.528;2023-07-13T02:12:32;98774.88;;;14.27;100.00
35435;BME280;21556;55.782;37.528;2023-07-13T02:14:58;98773.66;;;14.57;100.00
35435;BME280;21556;55.782;37.528;2023-07-13T02:17:25;98777.97;;;14.62;100.00
35435;BME280;21556;55.782;37.528;2023-07-13T02:19:51;98772.94;;;14.42;100.00
35435;BME280;21556;55.782;37.528;2023-07-13T02:22:18;98766.53;;;14.63;100.00
35435;BME280;21556;55.782;37.528;2023-07-13T02:24:43;98770.25;;;14.45;100.00
35435;BME280;21556;55.782;37.528;2023-07-13T02:27:09;98778.97;;;14.52;100.00
35435;BME280;21556;55.782;37.528;2023-07-13T02:29:35;98769.81;;;14.13;100.00
35435;BME280;21556;55.782;37.528;2023-07-13T02:32:00;98766.72;;;14.47;100.00
35435;BME280;21556;55.782;37.528;2023-07-13T02:34:26;98765.34;;;14.18;100.00
35435;BME280;21556;55.782;37.528;2023-07-13T02:36:52;98775.91;;;14.18;100.00
35435;BME280;21556;55.782;37.528;2023-07-13T02:39:17;98769.19;;;14.60;100.00
35435;BME280;21556;55.782;37.528;2023-07-13T02:41:43;98763.13;;;14.52;100.00
35435;BME280;21556;55.782;37.528;2023-07-13T02:44:09;98768.22;;;14.67;100.00
35435;BME280;21556;55.782;37.528;2023-07-13T02:46:35;98770.88;;;14.67;100.00
35435;BME280;21556;55.782;37.528;2023-07-13T02:49:01;98764.22;;;14.36;100.00
35435;BME280;21556;55.782;37.528;2023-07-13T02:51:27;98763.78;;;14.69;100.00
35435;BME280;21556;55.782;37.528;2023-07-13T02:53:53;98765.69;;;14.58;100.00
35435;BME280;21556;55.782;37.528;2023-07-13T02:56:23;98771.13;;;14.46;100.00
35435;BME280;21556;55.782;37.528;2023-07-13T02:58:49;98764.38;;;14.25;100.00
35435;BME280;21556;55.782;37.528;2023-07-13T03:01:14;98767.56;;;14.52;100.00
35435;BME280;21556;55.782;37.528;2023-07-13T03:03:43;98762.50;;;14.35;100.00
35435;BME280;21556;55.782;37.528;2023-07-13T03:06:08;98754.81;;;14.80;100.00
35435;BME280;21556;55.782;37.528;2023-07-13T03:08:41;98755.94;;;14.65;100.00
35435;BME280;21556;55.782;37.528;2023-07-13T03:11:08;98746.81;;;14.86;100.00
35435;BME280;21556;55.782;37.528;2023-07-13T03:13:37;98744.47;;;14.67;100.00
35435;BME280;21556;55.782;37.528;2023-07-13T03:16:04;98745.59;;;15.05;100.00
35435;BME280;21556;55.782;37.528;2023-07-13T03:18:30;98753.44;;;15.10;100.00
35435;BME280;21556;55.782;37.528;2023-07-13T03:21:00;98758.34;;;14.80;100.00
35435;BME280;21556;55.782;37.528;2023-07-13T03:23:26;98758.69;;;14.57;100.00
35435;BME280;21556;55.782;37.528;2023-07-13T03:26:01;98758.13;;;14.94;100.00
35435;BME280;21556;55.782;37.528;2023-07-13T03:28:29;98771.19;;;15.03;100.00
35435;BME280;21556;55.782;37.528;2023-07-13T03:31:00;98760.06;;;14.83;100.00
35435;BME280;21556;55.782;37.528;2023-07-13T03:33:26;98766.09;;;14.92;100.00
35435;BME280;21556;55.782;37.528;2023-07-13T03:35:51;98768.25;;;14.63;100.00
35435;BME280;21556;55.782;37.528;2023-07-13T03:38:17;98764.94;;;14.50;100.00
35435;BME280;21556;55.782;37.528;2023-07-13T03:40:43;98769.09;;;14.66;100.00
35435;BME280;21556;55.782;37.528;2023-07-13T03:43:10;98771.81;;;14.63;100.00
35435;BME280;21556;55.782;37.528;2023-07-13T03:45:37;98768.81;;;14.85;100.00
35435;BME280;21556;55.782;37.528;2023-07-13T03:48:03;98764.84;;;15.15;100.00
35435;BME280;21556;55.782;37.528;2023-07-13T03:50:31;98765.59;;;15.20;100.00
35435;BME280;21556;55.782;37.528;2023-07-13T03:52:57;98766.91;;;14.95;100.00
35435;BME280;21556;55.782;37.528;2023-07-13T03:55:22;98771.81;;;14.62;100.00
35435;BME280;21556;55.782;37.528;2023-07-13T03:57:53;98773.63;;;15.14;100.00
35435;BME280;21556;55.782;37.528;2023-07-13T04:00:19;98766.13;;;14.88;100.00
35435;BME280;21556;55.782;37.528;2023-07-13T04:02:45;98762.31;;;15.07;100.00
35435;BME280;21556;55.782;37.528;2023-07-13T04:05:12;98767.38;;;15.20;100.00
35435;BME280;21556;55.782;37.528;2023-07-13T04:07:38;98764.91;;;15.09;100.00
35435;BME280;21556;55.782;37.528;2023-07-13T04:10:05;98767.19;;;15.30;100.00
35435;BME280;21556;55.782;37.528;2023-07-13T04:12:31;98763.59;;;15.36;100.00
35435;BME280;21556;55.782;37.528;2023-07-13T04:14:57;98770.25;;;15.07;100.00
35435;BME280;21556;55.782;37.528;2023-07-13T04:17:23;98774.63;;;15.08;100.00
35435;BME280;21556;55.782;37.528;2023-07-13T04:19:48;98769.75;;;15.35;100.00
35435;BME280;21556;55.782;37.528;2023-07-13T04:22:14;98780.50;;;15.24;100.00
35435;BME280;21556;55.782;37.528;2023-07-13T04:24:40;98778.72;;;15.25;100.00
35435;BME280;21556;55.782;37.528;2023-07-13T04:27:06;98767.34;;;15.23;100.00
35435;BME280;21556;55.782;37.528;2023-07-13T04:29:32;98771.84;;;15.16;100.00
35435;BME280;21556;55.782;37.528;2023-07-13T04:31:58;98778.03;;;15.13;100.00
35435;BME280;21556;55.782;37.528;2023-07-13T04:34:24;98770.81;;;15.26;100.00
35435;BME280;21556;55.782;37.528;2023-07-13T04:36:50;98764.84;;;15.13;100.00
35435;BME280;21556;55.782;37.528;2023-07-13T04:39:15;98759.22;;;15.33;100.00
35435;BME280;21556;55.782;37.528;2023-07-13T04:41:41;98760.50;;;15.09;100.00
35435;BME280;21556;55.782;37.528;2023-07-13T04:44:08;98758.69;;;15.14;100.00
35435;BME280;21556;55.782;37.528;2023-07-13T04:46:34;98751.38;;;15.29;100.00
35435;BME280;21556;55.782;37.528;2023-07-13T04:49:00;98748.84;;;15.23;100.00
35435;BME280;21556;55.782;37.528;2023-07-13T04:51:26;98760.22;;;15.26;100.00
35435;BME280;21556;55.782;37.528;2023-07-13T04:53:52;98752.44;;;15.19;100.00
35435;BME280;21556;55.782;37.528;2023-07-13T04:56:17;98759.38;;;15.26;100.00
35435;BME280;21556;55.782;37.528;2023-07-13T04:58:45;98765.91;;;15.53;100.00
35435;BME280;21556;55.782;37.528;2023-07-13T05:01:11;98765.34;;;15.37;100.00
35435;BME280;21556;55.782;37.528;2023-07-13T05:03:37;98776.22;;;15.70;100.00
35435;BME280;21556;55.782;37.528;2023-07-13T05:06:04;98775.75;;;15.45;100.00
35435;BME280;21556;55.782;37.528;2023-07-13T05:08:30;98767.41;;;15.69;100.00
35435;BME280;21556;55.782;37.528;2023-07-13T05:10:56;98776.63;;;15.45;100.00
35435;BME280;21556;55.782;37.528;2023-07-13T05:13:24;98775.97;;;15.83;100.00
35435;BME280;21556;55.782;37.528;2023-07-13T05:16:01;98769.66;;;15.91;100.00
35435;BME280;21556;55.782;37.528;2023-07-13T05:18:27;98773.94;;;15.96;100.00
35435;BME280;21556;55.782;37.528;2023-07-13T05:21:02;98780.03;;;16.00;100.00
35435;BME280;21556;55.782;37.528;2023-07-13T05:23:29;98781.28;;;16.25;100.00
35435;BME280;21556;55.782;37.528;2023-07-13T05:25:54;98774.16;;;16.29;100.00
35435;BME280;21556;55.782;37.528;2023-07-13T05:28:21;98786.00;;;16.51;100.00
35435;BME280;21556;55.782;37.528;2023-07-13T05:30:47;98774.34;;;16.20;100.00
35435;BME280;21556;55.782;37.528;2023-07-13T05:33:16;98774.63;;;16.06;100.00
35435;BME280;21556;55.782;37.528;2023-07-13T05:35:42;98776.03;;;16.22;100.00
35435;BME280;21556;55.782;37.528;2023-07-13T05:38:08;98763.84;;;16.17;100.00
35435;BME280;21556;55.782;37.528;2023-07-13T05:40:36;98770.53;;;16.33;100.00
35435;BME280;21556;55.782;37.528;2023-07-13T05:43:02;98763.22;;;16.44;100.00
35435;BME280;21556;55.782;37.528;2023-07-13T05:45:29;98760.81;;;16.74;100.00
35435;BME280;21556;55.782;37.528;2023-07-13T05:47:54;98763.31;;;16.80;100.00
35435;BME280;21556;55.782;37.528;2023-07-13T05:50:20;98763.31;;;16.80;100.00
35435;BME280;21556;55.782;37.528;2023-07-13T05:52:46;98758.03;;;16.80;100.00
35435;BME280;21556;55.782;37.528;2023-07-13T05:55:12;98758.00;;;16.81;100.00
35435;BME280;21556;55.782;37.528;2023-07-13T05:57:38;98763.06;;;16.91;100.00
35435;BME280;21556;55.782;37.528;2023-07-13T06:00:04;98751.16;;;17.08;100.00
35435;BME280;21556;55.782;37.528;2023-07-13T06:02:38;98749.56;;;17.01;100.00
35435;BME280;21556;55.782;37.528;2023-07-13T06:05:04;98748.81;;;16.96;100.00
35435;BME280;21556;55.782;37.528;2023-07-13T06:07:29;98750.84;;;16.85;100.00
35435;BME280;21556;55.782;37.528;2023-07-13T06:09:55;98736.84;;;17.16;100.00
35435;BME280;21556;55.782;37.528;2023-07-13T06:12:20;98734.06;;;17.22;100.00
35435;BME280;21556;55.782;37.528;2023-07-13T06:14:46;98744.66;;;16.86;100.00
35435;BME280;21556;55.782;37.528;2023-07-13T06:17:12;98741.47;;;17.07;100.00
35435;BME280;21556;55.782;37.528;2023-07-13T06:19:38;98732.59;;;17.08;100.00
35435;BME280;21556;55.782;37.528;2023-07-13T06:22:04;98724.94;;;17.32;100.00
35435;BME280;21556;55.782;37.528;2023-07-13T06:24:30;98724.38;;;17.19;100.00
35435;BME280;21556;55.782;37.528;2023-07-13T06:26:55;98729.03;;;17.11;100.00
35435;BME280;21556;55.782;37.528;2023-07-13T06:29:21;98717.69;;;17.39;100.00
35435;BME280;21556;55.782;37.528;2023-07-13T06:31:47;98716.28;;;17.58;100.00
35435;BME280;21556;55.782;37.528;2023-07-13T06:34:12;98705.91;;;17.83;100.00
35435;BME280;21556;55.782;37.528;2023-07-13T06:36:38;98718.66;;;17.69;100.00
35435;BME280;21556;55.782;37.528;2023-07-13T06:39:06;98711.69;;;17.65;100.00
35435;BME280;21556;55.782;37.528;2023-07-13T06:41:32;98721.13;;;17.42;100.00
35435;BME280;21556;55.782;37.528;2023-07-13T06:43:58;98724.97;;;17.63;100.00
35435;BME280;21556;55.782;37.528;2023-07-13T06:46:24;98726.28;;;17.48;100.00
35435;BME280;21556;55.782;37.528;2023-07-13T06:48:50;98723.69;;;17.45;100.00
35435;BME280;21556;55.782;37.528;2023-07-13T06:51:16;98723.13;;;17.67;100.00
35435;BME280;21556;55.782;37.528;2023-07-13T06:53:41;98728.34;;;17.70;100.00
35435;BME280;21556;55.782;37.528;2023-07-13T06:56:09;98734.84;;;17.25;100.00
35435;BME280;21556;55.782;37.528;2023-07-13T06:58:35;98723.19;;;17.31;100.00
35435;BME280;21556;55.782;37.528;2023-07-13T07:01:01;98727.97;;;17.18;100.00
35435;BME280;21556;55.782;37.528;2023-07-13T07:03:27;98721.31;;;17.35;100.00
35435;BME280;21556;55.782;37.528;2023-07-13T07:05:53;98715.25;;;17.64;100.00
35435;BME280;21556;55.782;37.528;2023-07-13T07:08:19;98718.38;;;17.47;100.00
35435;BME280;21556;55.782;37.528;2023-07-13T07:10:46;98715.28;;;17.62;100.00
35435;BME280;21556;55.782;37.528;2023-07-13T07:13:17;98710.06;;;17.26;100.00
35435;BME280;21556;55.782;37.528;2023-07-13T07:15:44;98725.19;;;17.23;100.00
35435;BME280;21556;55.782;37.528;2023-07-13T07:18:10;98710.56;;;17.73;100.00
35435;BME280;21556;55.782;37.528;2023-07-13T07:20:36;98714.59;;;17.88;100.00
35435;BME280;21556;55.782;37.528;2023-07-13T07:23:05;98712.06;;;17.84;100.00
35435;BME280;21556;55.782;37.528;2023-07-13T07:25:32;98717.88;;;17.65;100.00
35435;BME280;21556;55.782;37.528;2023-07-13T07:28:02;98724.59;;;17.78;100.00
35435;BME280;21556;55.782;37.528;2023-07-13T07:30:28;98731.72;;;17.75;100.00
35435;BME280;21556;55.782;37.528;2023-07-13T07:32:54;98733.06;;;17.59;100.00
35435;BME280;21556;55.782;37.528;2023-07-13T07:35:20;98734.47;;;17.72;100.00
35435;BME280;21556;55.782;37.528;2023-07-13T07:37:46;98738.53;;;17.52;100.00
35435;BME280;21556;55.782;37.528;2023-07-13T07:40:11;98755.56;;;17.78;100.00
35435;BME280;21556;55.782;37.528;2023-07-13T07:42:37;98746.84;;;17.71;100.00
35435;BME280;21556;55.782;37.528;2023-07-13T07:45:02;98740.16;;;17.58;100.00
35435;BME280;21556;55.782;37.528;2023-07-13T07:47:29;98751.28;;;17.38;100.00
35435;BME280;21556;55.782;37.528;2023-07-13T07:49:54;98751.47;;;17.65;100.00
35435;BME280;21556;55.782;37.528;2023-07-13T07:52:20;98748.47;;;17.78;100.00
35435;BME280;21556;55.782;37.528;2023-07-13T07:54:46;98746.03;;;17.69;100.00
35435;BME280;21556;55.782;37.528;2023-07-13T07:57:11;98752.56;;;17.58;100.00
35435;BME280;21556;55.782;37.528;2023-07-13T07:59:37;98746.53;;;17.51;100.00
35435;BME280;21556;55.782;37.528;2023-07-13T08:02:03;98756.50;;;17.75;100.00
35435;BME280;21556;55.782;37.528;2023-07-13T08:04:29;98747.91;;;17.66;100.00
35435;BME280;21556;55.782;37.528;2023-07-13T08:06:56;98738.72;;;17.79;100.00
35435;BME280;21556;55.782;37.528;2023-07-13T08:09:23;98732.28;;;17.88;100.00
35435;BME280;21556;55.782;37.528;2023-07-13T08:11:48;98756.78;;;17.65;100.00
35435;BME280;21556;55.782;37.528;2023-07-13T08:14:14;98747.69;;;17.73;100.00
35435;BME280;21556;55.782;37.528;2023-07-13T08:16:40;98744.03;;;17.79;100.00
35435;BME280;21556;55.782;37.528;2023-07-13T08:19:06;98748.44;;;17.80;100.00
35435;BME280;21556;55.782;37.528;2023-07-13T08:21:33;98737.75;;;17.83;100.00
35435;BME280;21556;55.782;37.528;2023-07-13T08:23:59;98743.16;;;17.78;100.00
35435;BME280;21556;55.782;37.528;2023-07-13T08:26:25;98743.34;;;17.71;100.00
35435;BME280;21556;55.782;37.528;2023-07-13T08:28:51;98745.56;;;17.53;100.00
35435;BME280;21556;55.782;37.528;2023-07-13T08:31:17;98750.09;;;17.50;100.00
35435;BME280;21556;55.782;37.528;2023-07-13T08:33:43;98747.72;;;17.72;100.00
35435;BME280;21556;55.782;37.528;2023-07-13T08:36:08;98737.84;;;17.78;100.00
35435;BME280;21556;55.782;37.528;2023-07-13T08:38:34;98745.34;;;17.63;100.00
35435;BME280;21556;55.782;37.528;2023-07-13T08:41:00;98742.09;;;17.51;100.00
35435;BME280;21556;55.782;37.528;2023-07-13T08:43:28;98745.91;;;17.07;100.00
35435;BME280;21556;55.782;37.528;2023-07-13T08:45:58;98753.88;;;17.05;100.00
35435;BME280;21556;55.782;37.528;2023-07-13T08:48:27;98760.63;;;17.53;100.00
35435;BME280;21556;55.782;37.528;2023-07-13T08:50:57;98766.75;;;17.21;100.00
35435;BME280;21556;55.782;37.528;2023-07-13T08:53:24;98760.22;;;17.34;100.00
35435;BME280;21556;55.782;37.528;2023-07-13T08:55:58;98762.16;;;17.27;100.00
35435;BME280;21556;55.782;37.528;2023-07-13T08:58:25;98772.56;;;17.35;100.00
35435;BME280;21556;55.782;37.528;2023-07-13T09:01:03;98783.53;;;17.21;100.00
35435;BME280;21556;55.782;37.528;2023-07-13T09:03:37;98775.19;;;17.37;100.00
35435;BME280;21556;55.782;37.528;2023-07-13T09:06:06;98770.75;;;17.37;100.00
35435;BME280;21556;55.782;37.528;2023-07-13T09:16:08;98780.97;;;17.52;100.00
35435;BME280;21556;55.782;37.528;2023-07-13T09:18:35;98781.50;;;17.32;100.00
35435;BME280;21556;55.782;37.528;2023-07-13T09:23:31;98790.63;;;17.55;100.00
35435;BME280;21556;55.782;37.528;2023-07-13T09:26:05;98794.47;;;17.07;100.00
35435;BME280;21556;55.782;37.528;2023-07-13T09:28:37;98790.50;;;17.25;100.00
35435;BME280;21556;55.782;37.528;2023-07-13T09:31:06;98789.19;;;17.06;100.00
35435;BME280;21556;55.782;37.528;2023-07-13T09:33:32;98800.94;;;16.96;100.00
35435;BME280;21556;55.782;37.528;2023-07-13T09:36:00;98789.63;;;16.89;100.00
35435;BME280;21556;55.782;37.528;2023-07-13T09:38:27;98791.81;;;17.07;100.00
35435;BME280;21556;55.782;37.528;2023-07-13T09:41:18;98797.09;;;16.69;100.00
35435;BME280;21556;55.782;37.528;2023-07-13T09:46:25;98802.81;;;16.50;100.00
35435;BME280;21556;55.782;37.528;2023-07-13T09:48:51;98794.84;;;16.92;100.00
35435;BME280;21556;55.782;37.528;2023-07-13T09:51:16;98794.59;;;17.01;100.00
35435;BME280;21556;55.782;37.528;2023-07-13T09:53:42;98796.28;;;16.67;100.00
35435;BME280;21556;55.782;37.528;2023-07-13T09:56:28;98793.06;;;16.52;100.00
35435;BME280;21556;55.782;37.528;2023-07-13T09:58:55;98791.16;;;16.99;100.00
35435;BME280;21556;55.782;37.528;2023-07-13T10:04:18;98794.13;;;16.86;100.00
35435;BME280;21556;55.782;37.528;2023-07-13T10:06:45;98792.28;;;16.88;100.00
35435;BME280;21556;55.782;37.528;2023-07-13T10:09:19;98780.38;;;17.05;100.00
35435;BME280;21556;55.782;37.528;2023-07-13T10:11:45;98790.19;;;17.02;100.00
35435;BME280;21556;55.782;37.528;2023-07-13T10:14:17;98786.97;;;16.88;100.00
35435;BME280;21556;55.782;37.528;2023-07-13T10:16:46;98800.53;;;16.75;100.00
35435;BME280;21556;55.782;37.528;2023-07-13T10:19:21;98799.78;;;16.67;100.00
35435;BME280;21556;55.782;37.528;2023-07-13T10:21:58;98794.41;;;16.30;100.00
35435;BME280;21556;55.782;37.528;2023-07-13T10:24:29;98793.06;;;16.52;100.00
35435;BME280;21556;55.782;37.528;2023-07-13T10:27:09;98792.41;;;16.41;100.00
35435;BME280;21556;55.782;37.528;2023-07-13T10:29:38;98800.84;;;16.60;100.00
35435;BME280;21556;55.782;37.528;2023-07-13T10:32:08;98794.34;;;16.33;100.00
35435;BME280;21556;55.782;37.528;2023-07-13T10:34:34;98793.63;;;16.25;100.00
35435;BME280;21556;55.782;37.528;2023-07-13T10:37:00;98801.81;;;16.54;100.00
35435;BME280;21556;55.782;37.528;2023-07-13T10:39:27;98797.41;;;16.13;100.00
35435;BME280;21556;55.782;37.528;2023-07-13T10:41:55;98811.72;;;16.03;100.00
35435;BME280;21556;55.782;37.528;2023-07-13T10:44:25;98806.22;;;16.13;100.00
35435;BME280;21556;55.782;37.528;2023-07-13T10:46:53;98805.63;;;15.99;100.00
35435;BME280;21556;55.782;37.528;2023-07-13T10:49:19;98810.81;;;16.05;100.00
35435;BME280;21556;55.782;37.528;2023-07-13T10:51:45;98809.75;;;16.14;100.00
35435;BME280;21556;55.782;37.528;2023-07-13T10:54:14;98808.06;;;16.52;100.00
35435;BME280;21556;55.782;37.528;2023-07-13T10:56:43;98817.94;;;16.02;100.00
35435;BME280;21556;55.782;37.528;2023-07-13T11:01:50;98806.69;;;15.89;100.00
35435;BME280;21556;55.782;37.528;2023-07-13T11:04:18;98815.19;;;16.06;100.00
35435;BME280;21556;55.782;37.528;2023-07-13T11:06:47;98799.25;;;16.09;100.00
35435;BME280;21556;55.782;37.528;2023-07-13T11:12:06;98803.56;;;16.13;100.00
35435;BME280;21556;55.782;37.528;2023-07-13T11:14:36;98802.56;;;16.19;100.00
35435;BME280;21556;55.782;37.528;2023-07-13T11:19:47;98804.56;;;16.08;100.00
35435;BME280;21556;55.782;37.528;2023-07-13T11:22:16;98800.50;;;16.35;100.00
35435;BME280;21556;55.782;37.528;2023-07-13T11:25:02;98800.13;;;16.10;100.00
35435;BME280;21556;55.782;37.528;2023-07-13T11:27:46;98801.59;;;16.25;100.00
35435;BME280;21556;55.782;37.528;2023-07-13T11:33:11;98792.72;;;16.26;100.00
35435;BME280;21556;55.782;37.528;2023-07-13T11:35:42;98795.81;;;16.04;100.00
35435;BME280;21556;55.782;37.528;2023-07-13T11:38:14;98796.00;;;15.95;100.00
35435;BME280;21556;55.782;37.528;2023-07-13T11:40:41;98800.19;;;16.07;100.00
35435;BME280;21556;55.782;37.528;2023-07-13T11:43:08;98800.38;;;16.40;100.00
35435;BME280;21556;55.782;37.528;2023-07-13T11:45:33;98787.91;;;16.46;100.00
35435;BME280;21556;55.782;37.528;2023-07-13T11:47:59;98798.34;;;16.52;100.00
35435;BME280;21556;55.782;37.528;2023-07-13T11:50:25;98791.13;;;16.59;100.00
35435;BME280;21556;55.782;37.528;2023-07-13T11:52:52;98794.88;;;16.50;100.00
35435;BME280;21556;55.782;37.528;2023-07-13T11:55:20;98789.69;;;16.44;100.00
35435;BME280;21556;55.782;37.528;2023-07-13T11:58:04;98796.41;;;16.19;100.00
35435;BME280;21556;55.782;37.528;2023-07-13T12:00:31;98800.38;;;16.40;100.00
35435;BME280;21556;55.782;37.528;2023-07-13T12:02:59;98795.84;;;16.45;100.00
35435;BME280;21556;55.782;37.528;2023-07-13T12:05:26;98802.19;;;16.79;100.00
35435;BME280;21556;55.782;37.528;2023-07-13T12:07:51;98802.75;;;16.53;100.00
35435;BME280;21556;55.782;37.528;2023-07-13T12:12:52;98804.75;;;15.99;100.00
35435;BME280;21556;55.782;37.528;2023-07-13T12:15:18;98810.81;;;16.05;100.00
35435;BME280;21556;55.782;37.528;2023-07-13T12:17:45;98806.16;;;16.17;100.00
35435;BME280;21556;55.782;37.528;2023-07-13T12:20:17;98803.41;;;16.21;100.00
35435;BME280;21556;55.782;37.528;2023-07-13T12:22:48;98801.69;;;16.20;100.00
35435;BME280;21556;55.782;37.528;2023-07-13T12:25:14;98797.06;;;16.30;100.00
35435;BME280;21556;55.782;37.528;2023-07-13T12:27:40;98796.44;;;16.17;100.00
35435;BME280;21556;55.782;37.528;2023-07-13T12:30:23;98802.25;;;15.91;100.00
35435;BME280;21556;55.782;37.528;2023-07-13T12:32:58;98789.34;;;16.19;100.00
35435;BME280;21556;55.782;37.528;2023-07-13T12:35:24;98792.41;;;15.99;100.00
35435;BME280;21556;55.782;37.528;2023-07-13T12:37:51;98789.97;;;16.32;100.00
35435;BME280;21556;55.782;37.528;2023-07-13T12:40:17;98794.50;;;16.27;100.00
35435;BME280;21556;55.782;37.528;2023-07-13T12:42:46;98787.69;;;16.13;100.00
35435;BME280;21556;55.782;37.528;2023-07-13T12:45:19;98775.38;;;16.12;100.00
35435;BME280;21556;55.782;37.528;2023-07-13T12:47:47;98786.63;;;16.24;100.00
35435;BME280;21556;55.782;37.528;2023-07-13T12:50:15;98793.97;;;15.61;100.00
35435;BME280;21556;55.782;37.528;2023-07-13T12:52:42;98786.59;;;15.79;100.00
35435;BME280;21556;55.782;37.528;2023-07-13T12:55:15;98781.97;;;15.90;100.00
35435;BME280;21556;55.782;37.528;2023-07-13T12:57:44;98778.97;;;16.08;100.00
35435;BME280;21556;55.782;37.528;2023-07-13T13:00:30;98775.22;;;16.19;100.00
35435;BME280;21556;55.782;37.528;2023-07-13T13:03:03;98769.44;;;16.01;100.00
35435;BME280;21556;55.782;37.528;2023-07-13T13:05:30;98776.72;;;16.32;100.00
35435;BME280;21556;55.782;37.528;2023-07-13T13:07:57;98772.69;;;16.14;100.00
35435;BME280;21556;55.782;37.528;2023-07-13T13:10:23;98774.94;;;15.91;100.00